createdAt,value
2018-03-28T00:00:08.515Z,14.05
2018-03-28T00:02:35.507Z,14.98
2018-03-28T00:05:02.423Z,17.00
2018-03-28T00:07:29.416Z,16.75
2018-03-28T00:09:56.369Z,18.00
2018-03-28T00:12:23.406Z,16.05
2018-03-28T00:14:50.515Z,15.57
2018-03-28T00:17:17.655Z,17.67
2018-03-28T00:19:44.695Z,17.92
2018-03-28T00:22:11.718Z,18.42
2018-03-28T00:24:38.741Z,20.30
2018-03-28T00:27:05.815Z,20.33
2018-03-28T00:29:32.778Z,20.95
2018-03-28T00:31:59.720Z,23.48
2018-03-28T00:34:26.632Z,22.10
2018-03-28T00:36:53.718Z,24.95
2018-03-28T00:39:20.816Z,24.70
2018-03-28T00:41:47.885Z,26.02
2018-03-28T00:44:14.890Z,27.40
2018-03-28T00:46:42.066Z,30.52
2018-03-28T00:49:09.087Z,27.45
2018-03-28T00:51:36.938Z,30.83
2018-03-28T00:54:03.872Z,27.37
2018-03-28T00:56:30.940Z,26.10
2018-03-28T00:58:58.095Z,28.25
2018-03-28T01:01:25.177Z,28.95
2018-03-28T01:03:52.288Z,25.80
2018-03-28T01:06:20.143Z,26.83
2018-03-28T01:08:47.217Z,28.35
2018-03-28T01:11:14.191Z,27.65
2018-03-28T01:13:41.200Z,28.98
2018-03-28T01:16:08.308Z,28.67
2018-03-28T01:18:35.250Z,31.50
2018-03-28T01:21:02.406Z,29.48
2018-03-28T01:23:29.329Z,37.42
2018-03-28T01:25:56.433Z,35.80
2018-03-28T01:28:23.403Z,40.10
2018-03-28T01:30:50.432Z,37.60
2018-03-28T01:33:17.393Z,38.28
2018-03-28T01:35:44.375Z,36.00
2018-03-28T01:38:11.366Z,38.42
2018-03-28T01:40:38.456Z,36.92
2018-03-28T01:43:05.398Z,41.95
2018-03-28T01:45:32.365Z,40.90
2018-03-28T01:47:59.370Z,36.65
2018-03-28T01:50:26.372Z,37.92
2018-03-28T01:52:53.475Z,38.47
2018-03-28T01:55:20.473Z,34.60
2018-03-28T01:57:47.512Z,33.78
2018-03-28T02:00:14.450Z,33.95
2018-03-28T02:02:41.554Z,36.58
2018-03-28T02:05:08.503Z,32.38
2018-03-28T02:07:35.490Z,35.20
2018-03-28T02:10:02.394Z,34.38
2018-03-28T02:12:29.266Z,33.78
2018-03-28T02:14:56.324Z,32.38
2018-03-28T02:17:23.394Z,34.55
2018-03-28T02:19:50.352Z,32.80
2018-03-28T02:22:17.304Z,33.67
2018-03-28T02:24:44.272Z,31.62
2018-03-28T02:27:11.556Z,30.70
2018-03-28T02:29:38.496Z,27.85
2018-03-28T02:32:05.509Z,27.95
2018-03-28T02:34:32.471Z,29.00
2018-03-28T02:36:59.522Z,28.77
2018-03-28T02:39:26.463Z,29.75
2018-03-28T02:41:53.545Z,29.95
2018-03-28T02:44:20.607Z,31.85
2018-03-28T02:46:47.568Z,31.48
2018-03-28T02:49:14.589Z,29.77
2018-03-28T02:51:41.655Z,28.70
2018-03-28T02:54:08.679Z,30.35
2018-03-28T02:56:35.663Z,28.55
2018-03-28T02:59:02.556Z,28.00
2018-03-28T03:01:29.678Z,29.00
2018-03-28T03:03:56.531Z,28.98
2018-03-28T03:06:23.714Z,27.20
2018-03-28T03:08:50.779Z,28.62
2018-03-28T03:11:17.668Z,27.67
2018-03-28T03:13:44.697Z,26.15
2018-03-28T03:16:11.836Z,27.23
2018-03-28T03:18:38.728Z,26.40
2018-03-28T03:21:05.810Z,28.35
2018-03-28T03:23:32.791Z,27.60
2018-03-28T03:25:59.983Z,26.25
2018-03-28T03:28:26.904Z,26.55
2018-03-28T03:30:53.892Z,25.02
2018-03-28T03:33:20.946Z,25.90
2018-03-28T03:35:47.993Z,24.15
2018-03-28T03:38:15.023Z,25.60
2018-03-28T03:40:41.956Z,23.12
2018-03-28T03:43:08.949Z,25.77
2018-03-28T03:45:35.876Z,25.42
2018-03-28T03:48:02.856Z,24.25
2018-03-28T03:50:29.827Z,23.62
2018-03-28T03:52:56.722Z,24.73
2018-03-28T03:55:23.802Z,24.98
2018-03-28T03:57:50.847Z,23.83
2018-03-28T04:00:17.798Z,28.23
2018-03-28T04:02:44.784Z,26.67
2018-03-28T04:05:11.703Z,25.45
2018-03-28T04:07:38.621Z,27.17
2018-03-28T04:10:05.572Z,25.83
2018-03-28T04:12:32.514Z,27.17
2018-03-28T04:14:59.397Z,27.15
2018-03-28T04:17:26.297Z,26.12
2018-03-28T04:19:53.279Z,27.48
2018-03-28T04:22:20.280Z,26.48
2018-03-28T04:24:47.178Z,27.05
2018-03-28T04:27:14.142Z,27.45
2018-03-28T04:29:41.098Z,26.35
2018-03-28T04:32:08.073Z,27.67
2018-03-28T04:34:35.038Z,28.50
2018-03-28T04:37:02.240Z,27.58
2018-03-28T04:39:29.193Z,28.83
2018-03-28T04:41:56.191Z,27.67
2018-03-28T04:44:23.171Z,27.70
2018-03-28T04:46:50.223Z,26.30
2018-03-28T04:49:17.199Z,26.05
2018-03-28T04:51:44.303Z,27.10
2018-03-28T04:54:11.212Z,28.27
2018-03-28T04:56:38.268Z,26.90
2018-03-28T04:59:05.238Z,28.08
2018-03-28T05:01:32.400Z,29.08
2018-03-28T05:03:59.297Z,28.10
2018-03-28T05:06:26.362Z,27.37
2018-03-28T05:08:53.325Z,28.80
2018-03-28T05:11:20.391Z,28.00
2018-03-28T05:13:47.267Z,27.20
2018-03-28T05:16:14.356Z,28.23
2018-03-28T05:18:41.320Z,27.87
2018-03-28T05:21:08.327Z,27.62
2018-03-28T05:23:35.232Z,27.95
2018-03-28T05:26:02.269Z,27.23
2018-03-28T05:28:29.246Z,25.50
2018-03-28T05:30:56.295Z,26.00
2018-03-28T05:33:23.258Z,25.67
2018-03-28T05:35:50.157Z,25.85
2018-03-28T05:38:17.135Z,27.92
2018-03-28T05:40:44.079Z,31.05
2018-03-28T05:43:10.979Z,37.15
2018-03-28T05:45:37.888Z,33.42
2018-03-28T05:48:04.751Z,33.72
2018-03-28T05:50:31.657Z,29.12
2018-03-28T05:52:58.545Z,29.55
2018-03-28T05:55:25.393Z,26.12
2018-03-28T05:57:52.283Z,24.80
2018-03-28T06:00:19.258Z,26.48
2018-03-28T06:02:46.181Z,27.15
2018-03-28T06:05:13.080Z,24.55
2018-03-28T06:07:40.020Z,23.70
2018-03-28T06:10:06.977Z,22.13
2018-03-28T06:12:33.904Z,25.42
2018-03-28T06:15:00.762Z,21.55
2018-03-28T06:17:27.628Z,19.48
2018-03-28T06:19:54.575Z,19.10
2018-03-28T06:22:21.574Z,18.23
2018-03-28T06:24:48.463Z,17.90
2018-03-28T06:27:15.311Z,17.00
2018-03-28T06:29:42.202Z,17.27
2018-03-28T06:32:09.106Z,16.40
2018-03-28T06:34:35.955Z,16.13
2018-03-28T06:37:02.928Z,17.13
2018-03-28T06:39:29.826Z,15.90
2018-03-28T06:41:56.760Z,17.37
2018-03-28T06:44:23.714Z,16.90
2018-03-28T06:46:50.856Z,17.30
2018-03-28T06:49:17.812Z,17.43
2018-03-28T06:51:44.806Z,17.23
2018-03-28T06:54:11.727Z,16.87
2018-03-28T06:56:38.686Z,17.83
2018-03-28T06:59:05.577Z,18.03
2018-03-28T07:01:32.536Z,18.60
2018-03-28T07:03:59.489Z,17.80
2018-03-28T07:06:26.729Z,19.00
2018-03-28T07:08:53.662Z,18.30
2018-03-28T07:11:20.687Z,18.87
2018-03-28T07:13:47.716Z,27.33
2018-03-28T07:16:14.745Z,20.40
2018-03-28T07:18:41.657Z,20.70
2018-03-28T07:21:08.594Z,21.33
2018-03-28T07:23:35.482Z,24.37
2018-03-28T07:26:02.599Z,20.03
2018-03-28T07:28:29.545Z,23.17
2018-03-28T07:30:56.720Z,19.43
2018-03-28T07:33:23.687Z,20.70
2018-03-28T07:35:50.999Z,22.07
2018-03-28T07:38:18.029Z,21.53
2018-03-28T07:40:44.970Z,22.97
2018-03-28T07:43:11.915Z,22.00
2018-03-28T07:45:38.787Z,23.93
2018-03-28T07:48:05.672Z,21.23
2018-03-28T07:50:32.542Z,20.57
2018-03-28T07:52:59.422Z,21.77
2018-03-28T07:55:26.355Z,24.57
2018-03-28T07:57:53.319Z,20.23
2018-03-28T08:00:20.251Z,21.53
2018-03-28T08:02:47.110Z,20.90
2018-03-28T08:05:14.025Z,18.97
2018-03-28T08:07:40.889Z,22.73
2018-03-28T08:10:07.822Z,20.57
2018-03-28T08:12:34.703Z,22.17
2018-03-28T08:15:01.594Z,23.13
2018-03-28T08:17:28.410Z,24.93
2018-03-28T08:19:55.342Z,24.73
2018-03-28T08:22:22.279Z,25.53
2018-03-28T08:24:49.218Z,26.03
2018-03-28T08:27:16.142Z,25.03
2018-03-28T08:29:42.999Z,24.03
2018-03-28T08:32:09.901Z,25.10
2018-03-28T08:34:36.788Z,25.17
2018-03-28T08:37:03.755Z,26.43
2018-03-28T08:39:30.611Z,26.73
2018-03-28T08:41:57.632Z,25.10
2018-03-28T08:44:24.630Z,24.13
2018-03-28T08:46:51.771Z,25.93
2018-03-28T08:49:18.665Z,27.80
2018-03-28T08:51:45.585Z,23.67
2018-03-28T08:54:12.487Z,24.13
2018-03-28T08:56:39.411Z,27.90
2018-03-28T08:59:06.401Z,25.80
2018-03-28T09:01:33.425Z,27.23
2018-03-28T09:04:00.304Z,26.43
2018-03-28T09:06:27.254Z,28.73
2018-03-28T09:08:54.350Z,24.73
2018-03-28T09:11:21.305Z,24.00
2018-03-28T09:13:48.260Z,30.20
2018-03-28T09:16:15.312Z,25.20
2018-03-28T09:18:42.259Z,28.97
2018-03-28T09:21:09.174Z,30.27
2018-03-28T09:23:36.056Z,34.23
2018-03-28T09:26:03.294Z,36.93
2018-03-28T09:28:30.194Z,36.93
2018-03-28T09:30:57.135Z,35.10
2018-03-28T09:33:24.050Z,36.37
2018-03-28T09:35:51.111Z,34.97
2018-03-28T09:38:18.069Z,35.10
2018-03-28T09:40:44.988Z,34.53
2018-03-28T09:43:11.846Z,30.80
2018-03-28T09:45:38.738Z,32.20
2018-03-28T09:48:05.558Z,32.37
2018-03-28T09:50:32.427Z,30.67
2018-03-28T09:52:59.320Z,29.37
2018-03-28T09:55:26.207Z,34.17
2018-03-28T09:57:54.531Z,35.47
2018-03-28T10:00:27.413Z,38.53
2018-03-28T10:03:00.035Z,37.27
2018-03-28T10:05:32.592Z,38.67
2018-03-28T10:07:59.561Z,41.97
2018-03-28T10:10:26.495Z,37.37
2018-03-28T10:12:53.433Z,34.37
2018-03-28T10:15:20.372Z,35.20
2018-03-28T10:17:47.232Z,31.60
2018-03-28T10:20:14.126Z,29.67
2018-03-28T10:22:41.059Z,28.03
2018-03-28T10:25:07.944Z,30.67
2018-03-28T10:27:34.981Z,27.10
2018-03-28T10:30:01.864Z,25.97
2018-03-28T10:32:28.715Z,26.37
2018-03-28T10:34:55.585Z,26.27
2018-03-28T10:37:22.490Z,24.73
2018-03-28T10:39:49.430Z,26.30
2018-03-28T10:42:16.323Z,19.63
2018-03-28T10:44:43.187Z,19.50
2018-03-28T10:47:10.065Z,20.77
2018-03-28T10:49:36.930Z,18.97
2018-03-28T10:52:03.776Z,19.27
2018-03-28T10:54:30.681Z,21.93
2018-03-28T10:56:57.634Z,21.20
2018-03-28T10:59:24.524Z,20.93
2018-03-28T11:01:51.554Z,20.33
2018-03-28T11:04:18.574Z,19.27
2018-03-28T11:06:45.739Z,21.70
2018-03-28T11:09:12.663Z,20.17
2018-03-28T11:11:39.813Z,22.33
2018-03-28T11:14:06.735Z,22.20
2018-03-28T11:16:33.775Z,23.47
2018-03-28T11:19:00.709Z,24.03
2018-03-28T11:21:27.741Z,23.23
2018-03-28T11:23:54.698Z,26.07
2018-03-28T11:26:21.753Z,26.53
2018-03-28T11:28:48.747Z,24.17
2018-03-28T11:31:15.990Z,26.47
2018-03-28T11:33:42.933Z,28.20
2018-03-28T11:36:09.872Z,24.93
2018-03-28T11:38:36.793Z,25.50
2018-03-28T11:41:03.808Z,22.90
2018-03-28T11:43:30.700Z,23.50
2018-03-28T11:45:57.742Z,22.33
2018-03-28T11:48:24.596Z,20.63
2018-03-28T11:50:51.702Z,21.57
2018-03-28T11:53:18.543Z,20.40
2018-03-28T11:55:45.501Z,21.57
2018-03-28T11:58:12.347Z,19.37
2018-03-28T12:00:39.222Z,21.17
2018-03-28T12:03:06.106Z,21.03
2018-03-28T12:05:33.114Z,20.43
2018-03-28T12:08:00.041Z,22.00
2018-03-28T12:10:26.946Z,22.87
2018-03-28T12:12:53.805Z,22.00
2018-03-28T12:15:20.811Z,22.77
2018-03-28T12:17:47.781Z,20.93
2018-03-28T12:20:14.641Z,20.87
2018-03-28T12:22:41.565Z,21.70
2018-03-28T12:25:08.508Z,19.63
2018-03-28T12:27:35.362Z,21.17
2018-03-28T12:30:02.292Z,20.13
2018-03-28T12:32:29.142Z,21.83
2018-03-28T12:34:56.128Z,20.47
2018-03-28T12:37:23.060Z,21.63
2018-03-28T12:39:50.115Z,20.13
2018-03-28T12:42:16.947Z,20.53
2018-03-28T12:44:43.863Z,21.63
2018-03-28T12:47:10.792Z,17.83
2018-03-28T12:49:37.683Z,17.80
2018-03-28T12:52:04.706Z,16.63
2018-03-28T12:54:31.552Z,17.97
2018-03-28T12:56:58.480Z,16.40
2018-03-28T12:59:25.426Z,17.07
2018-03-28T13:01:52.630Z,15.97
2018-03-28T13:04:19.553Z,15.77
2018-03-28T13:06:46.604Z,14.90
2018-03-28T13:09:13.463Z,14.23
2018-03-28T13:11:40.607Z,19.77
2018-03-28T13:14:07.734Z,17.97
2018-03-28T13:16:34.729Z,12.33
2018-03-28T13:19:01.637Z,12.43
2018-03-28T13:21:28.511Z,12.70
2018-03-28T13:23:55.383Z,11.33
2018-03-28T13:26:22.445Z,11.87
2018-03-28T13:28:49.395Z,11.83
2018-03-28T13:31:16.647Z,11.33
2018-03-28T13:33:43.568Z,11.33
2018-03-28T13:36:10.525Z,10.73
2018-03-28T13:38:37.489Z,9.87
2018-03-28T13:41:04.679Z,8.67
2018-03-28T13:43:31.545Z,9.43
2018-03-28T13:45:58.426Z,9.87
2018-03-28T13:48:25.251Z,4.80
2018-03-28T13:50:52.132Z,7.10
2018-03-28T13:53:19.055Z,3.77
2018-03-28T13:55:45.967Z,3.00
2018-03-28T13:58:12.869Z,3.00
2018-03-28T14:00:39.699Z,2.27
2018-03-28T14:03:06.595Z,3.23
2018-03-28T14:05:33.644Z,2.60
2018-03-28T14:08:00.438Z,2.20
2018-03-28T14:10:27.314Z,2.83
2018-03-28T14:12:54.297Z,3.43
2018-03-28T14:15:21.238Z,2.63
2018-03-28T14:17:48.160Z,3.90
2018-03-28T14:20:15.022Z,2.40
2018-03-28T14:22:41.929Z,2.80
2018-03-28T14:25:08.802Z,5.03
2018-03-28T14:27:35.714Z,8.77
2018-03-28T14:30:02.588Z,2.60
2018-03-28T14:32:29.462Z,6.63
2018-03-28T14:34:56.337Z,3.63
2018-03-28T14:37:23.272Z,13.83
2018-03-28T14:39:50.224Z,11.10
2018-03-28T14:42:17.150Z,6.37
2018-03-28T14:44:44.080Z,2.93
2018-03-28T14:47:10.921Z,4.43
2018-03-28T14:49:37.767Z,8.40
2018-03-28T14:52:04.673Z,6.77
2018-03-28T14:54:31.564Z,10.67
2018-03-28T14:56:58.362Z,5.97
2018-03-28T14:59:25.210Z,8.07
2018-03-28T15:01:52.104Z,8.73
2018-03-28T15:04:19.228Z,8.00
2018-03-28T15:06:49.113Z,6.57
2018-03-28T15:09:16.127Z,4.53
2018-03-28T15:11:43.066Z,22.60
2018-03-28T15:14:09.946Z,7.93
2018-03-28T15:16:36.837Z,11.23
2018-03-28T15:19:03.699Z,6.60
2018-03-28T15:21:30.702Z,10.23
2018-03-28T15:23:57.584Z,7.53
2018-03-28T15:26:24.477Z,5.40
2018-03-28T15:28:51.386Z,5.87
2018-03-28T15:31:18.470Z,6.97
2018-03-28T15:33:45.321Z,10.63
2018-03-28T15:36:12.235Z,9.70
2018-03-28T15:38:39.080Z,8.07
2018-03-28T15:41:06.005Z,50.23
2018-03-28T15:43:32.850Z,46.17
2018-03-28T15:45:59.794Z,34.97
2018-03-28T15:48:26.710Z,16.83
2018-03-28T15:50:53.708Z,15.97
2018-03-28T15:53:20.565Z,6.43
2018-03-28T15:55:47.491Z,37.13
2018-03-28T15:58:14.350Z,28.27
2018-03-28T16:00:41.204Z,5.87
2018-03-28T16:03:08.092Z,5.63
2018-03-28T16:05:34.986Z,5.83
2018-03-28T16:08:01.869Z,6.90
2018-03-28T16:10:28.676Z,6.33
2018-03-28T16:12:55.538Z,7.43
2018-03-28T16:15:22.465Z,7.20
2018-03-28T16:17:49.384Z,7.60
2018-03-28T16:20:16.263Z,8.07
2018-03-28T16:22:43.130Z,8.07
2018-03-28T16:25:10.193Z,10.07
2018-03-28T16:27:37.134Z,23.50
2018-03-28T16:30:04.371Z,11.70
2018-03-28T16:32:31.372Z,21.17
2018-03-28T16:34:58.403Z,11.10
2018-03-28T16:37:25.287Z,16.77
2018-03-28T16:39:52.200Z,11.30
2018-03-28T16:42:19.184Z,12.80
2018-03-28T16:44:46.090Z,11.47
2018-03-28T16:47:12.992Z,10.20
2018-03-28T16:49:39.908Z,8.07
2018-03-28T16:52:06.770Z,18.00
2018-03-28T16:54:33.840Z,9.60
2018-03-28T16:57:01.798Z,9.30
2018-03-28T16:59:29.507Z,9.83
2018-03-28T17:01:56.423Z,10.20
2018-03-28T17:04:23.373Z,9.50
2018-03-28T17:06:50.251Z,12.77
2018-03-28T17:09:17.122Z,14.47
2018-03-28T17:11:44.990Z,17.00
2018-03-28T17:14:11.921Z,15.43
2018-03-28T17:16:39.181Z,12.30
2018-03-28T17:19:06.161Z,14.77
2018-03-28T17:21:33.251Z,14.13
2018-03-28T17:24:00.253Z,13.70
2018-03-28T17:26:27.151Z,14.73
2018-03-28T17:28:54.154Z,14.50
2018-03-28T17:31:21.438Z,14.23
2018-03-28T17:33:50.274Z,17.97
2018-03-28T17:36:17.862Z,15.87
2018-03-28T17:38:44.978Z,14.90
2018-03-28T17:41:11.928Z,18.30
2018-03-28T17:43:38.965Z,18.10
2018-03-28T17:46:06.125Z,16.40
2018-03-28T17:48:33.393Z,15.33
2018-03-28T17:51:00.466Z,17.50
2018-03-28T17:53:27.476Z,16.37
2018-03-28T17:55:54.460Z,17.57
2018-03-28T17:58:23.693Z,16.33
2018-03-28T18:00:53.304Z,15.63
2018-03-28T18:03:20.980Z,16.23
2018-03-28T18:05:48.823Z,17.37
2018-03-28T18:08:15.847Z,15.50
2018-03-28T18:10:43.461Z,15.63
2018-03-28T18:13:10.515Z,16.73
2018-03-28T18:15:40.322Z,15.20
2018-03-28T18:18:07.380Z,16.60
2018-03-28T18:20:34.472Z,14.47
2018-03-28T18:23:03.471Z,15.13
2018-03-28T18:25:30.335Z,16.70
2018-03-28T18:27:57.310Z,16.90
2018-03-28T18:30:24.178Z,17.20
2018-03-28T18:32:51.100Z,15.13
2018-03-28T18:35:18.492Z,15.53
2018-03-28T18:37:45.460Z,15.87
2018-03-28T18:40:12.389Z,15.70
2018-03-28T18:42:39.893Z,15.43
2018-03-28T18:45:07.162Z,14.63
2018-03-28T18:47:34.116Z,15.30
2018-03-28T18:50:01.041Z,15.20
2018-03-28T18:52:27.942Z,15.53
2018-03-28T18:54:54.844Z,15.47
2018-03-28T18:57:21.722Z,14.53
2018-03-28T18:59:48.548Z,14.20
2018-03-28T19:02:15.406Z,14.00
2018-03-28T19:04:42.336Z,13.07
2018-03-28T19:07:09.193Z,12.43
2018-03-28T19:09:36.072Z,13.73
2018-03-28T19:12:02.973Z,12.67
2018-03-28T19:14:29.822Z,11.70
2018-03-28T19:16:56.683Z,12.30
2018-03-28T19:19:23.507Z,12.07
2018-03-28T19:21:50.471Z,12.33
2018-03-28T19:24:17.341Z,11.90
2018-03-28T19:26:45.247Z,11.30
2018-03-28T19:29:12.122Z,12.53
2018-03-28T19:31:39.166Z,12.40
2018-03-28T19:34:06.128Z,13.23
2018-03-28T19:36:34.116Z,13.67
2018-03-28T19:39:01.998Z,12.37
2018-03-28T19:41:28.939Z,12.47
2018-03-28T19:43:55.858Z,13.37
2018-03-28T19:46:23.121Z,12.77
2018-03-28T19:48:50.519Z,13.47
2018-03-28T19:51:18.024Z,12.50
2018-03-28T19:53:48.460Z,12.40
2018-03-28T19:56:15.550Z,12.67
2018-03-28T19:58:43.945Z,13.77
2018-03-28T20:01:11.072Z,13.03
2018-03-28T20:03:38.174Z,12.57
2018-03-28T20:06:05.395Z,13.03
2018-03-28T20:08:32.871Z,13.33
2018-03-28T20:10:59.933Z,12.63
2018-03-28T20:13:26.783Z,13.70
2018-03-28T20:15:53.862Z,13.37
2018-03-28T20:18:20.843Z,16.23
2018-03-28T20:20:47.760Z,16.17
2018-03-28T20:23:14.721Z,17.70
2018-03-28T20:25:41.671Z,18.27
2018-03-28T20:28:08.544Z,14.90
2018-03-28T20:30:35.428Z,14.90
2018-03-28T20:33:02.390Z,13.53
2018-03-28T20:35:29.413Z,13.57
2018-03-28T20:37:56.278Z,13.80
2018-03-28T20:40:23.230Z,14.07
2018-03-28T20:42:50.218Z,13.53
2018-03-28T20:45:17.190Z,13.80
2018-03-28T20:47:44.529Z,14.43
2018-03-28T20:50:11.476Z,14.63
2018-03-28T20:52:38.376Z,15.67
2018-03-28T20:55:05.314Z,14.83
2018-03-28T20:57:32.210Z,14.07
2018-03-28T20:59:59.105Z,14.80
2018-03-28T21:02:26.026Z,15.27
2018-03-28T21:04:53.234Z,15.57
2018-03-28T21:07:20.233Z,15.53
2018-03-28T21:09:47.247Z,15.17
2018-03-28T21:12:14.149Z,14.73
2018-03-28T21:14:41.170Z,17.07
2018-03-28T21:17:08.215Z,15.37
2018-03-28T21:19:35.079Z,16.20
2018-03-28T21:22:02.062Z,16.07
2018-03-28T21:24:29.014Z,16.47
2018-03-28T21:26:55.982Z,16.57
2018-03-28T21:29:23.094Z,15.97
2018-03-28T21:31:50.144Z,14.67
2018-03-28T21:34:17.132Z,16.43
2018-03-28T21:36:44.222Z,15.63
2018-03-28T21:39:11.082Z,17.03
2018-03-28T21:41:38.183Z,16.87
2018-03-28T21:44:05.055Z,15.97
2018-03-28T21:46:32.113Z,16.07
2018-03-28T21:48:58.973Z,17.63
2018-03-28T21:51:26.063Z,17.40
2018-03-28T21:53:53.137Z,17.93
2018-03-28T21:56:20.097Z,17.57
2018-03-28T21:58:47.003Z,16.27
2018-03-28T22:01:14.071Z,17.07
2018-03-28T22:03:41.077Z,17.20
2018-03-28T22:06:08.073Z,16.97
2018-03-28T22:08:35.030Z,16.93
2018-03-28T22:11:02.095Z,18.33
2018-03-28T22:13:28.998Z,18.63
2018-03-28T22:15:56.047Z,17.57
2018-03-28T22:18:23.117Z,19.03
2018-03-28T22:20:50.089Z,17.97
2018-03-28T22:23:17.044Z,18.13
2018-03-28T22:25:44.046Z,18.90
2018-03-28T22:28:11.024Z,19.27
2018-03-28T22:30:37.960Z,19.60
2018-03-28T22:33:04.858Z,19.57
2018-03-28T22:35:31.794Z,18.63
2018-03-28T22:37:58.710Z,19.40
2018-03-28T22:40:25.564Z,18.90
2018-03-28T22:42:52.567Z,19.70
2018-03-28T22:45:19.716Z,19.13
2018-03-28T22:47:46.585Z,18.90
2018-03-28T22:50:13.599Z,19.03
2018-03-28T22:52:40.572Z,19.57
2018-03-28T22:55:07.572Z,20.30
2018-03-28T22:57:34.483Z,19.63
2018-03-28T23:00:01.333Z,19.23
2018-03-28T23:02:28.257Z,19.83
2018-03-28T23:04:55.357Z,19.43
2018-03-28T23:07:22.423Z,20.90
2018-03-28T23:09:49.420Z,20.23
2018-03-28T23:12:16.344Z,20.90
2018-03-28T23:14:43.346Z,19.57
2018-03-28T23:17:10.339Z,20.20
2018-03-28T23:19:37.448Z,20.50
2018-03-28T23:22:04.457Z,19.70
2018-03-28T23:24:31.394Z,20.73
2018-03-28T23:26:58.318Z,22.10
2018-03-28T23:29:25.165Z,22.03
2018-03-28T23:31:52.419Z,19.40
2018-03-28T23:34:19.403Z,19.80
2018-03-28T23:36:46.366Z,20.80
2018-03-28T23:39:13.276Z,20.87
2018-03-28T23:41:40.378Z,20.47
2018-03-28T23:44:07.400Z,20.83
2018-03-28T23:46:34.376Z,21.43
2018-03-28T23:49:01.191Z,21.73
2018-03-28T23:51:28.113Z,21.17
2018-03-28T23:53:55.202Z,22.20
2018-03-28T23:56:22.277Z,21.30
2018-03-28T23:58:49.243Z,21.73
